sensor_id;sensor_type;location;lat;lon;timestamp;temperature;humidity
11426;DHT22;5769;47.998;7.788;2023-10-13T00:00:30;22.30;65.30
11426;DHT22;5769;47.998;7.788;2023-10-13T00:03:01;22.30;65.30
11426;DHT22;5769;47.998;7.788;2023-10-13T00:05:28;22.30;65.30
11426;DHT22;5769;47.998;7.788;2023-10-13T00:07:56;22.30;65.30
11426;DHT22;5769;47.998;7.788;2023-10-13T00:10:26;22.30;65.30
11426;DHT22;5769;47.998;7.788;2023-10-13T00:12:53;22.30;65.30
11426;DHT22;5769;47.998;7.788;2023-10-13T00:15:20;22.30;65.30
11426;DHT22;5769;47.998;7.788;2023-10-13T00:17:54;22.30;65.30
11426;DHT22;5769;47.998;7.788;2023-10-13T00:20:23;22.30;65.30
11426;DHT22;5769;47.998;7.788;2023-10-13T00:23:01;22.30;65.30
11426;DHT22;5769;47.998;7.788;2023-10-13T00:25:32;22.30;65.20
11426;DHT22;5769;47.998;7.788;2023-10-13T00:28:09;22.30;65.30
11426;DHT22;5769;47.998;7.788;2023-10-13T00:30:36;22.30;65.30
11426;DHT22;5769;47.998;7.788;2023-10-13T00:33:04;22.30;65.20
11426;DHT22;5769;47.998;7.788;2023-10-13T00:35:32;22.30;65.30
11426;DHT22;5769;47.998;7.788;2023-10-13T00:38:03;22.30;65.20
11426;DHT22;5769;47.998;7.788;2023-10-13T00:40:38;22.30;65.20
11426;DHT22;5769;47.998;7.788;2023-10-13T00:43:10;22.30;65.20
11426;DHT22;5769;47.998;7.788;2023-10-13T00:46:00;22.30;65.20
11426;DHT22;5769;47.998;7.788;2023-10-13T00:48:36;22.30;65.30
11426;DHT22;5769;47.998;7.788;2023-10-13T00:51:09;22.30;65.20
11426;DHT22;5769;47.998;7.788;2023-10-13T00:53:44;22.30;65.30
11426;DHT22;5769;47.998;7.788;2023-10-13T00:56:13;22.30;65.30
11426;DHT22;5769;47.998;7.788;2023-10-13T00:58:48;22.30;65.20
11426;DHT22;5769;47.998;7.788;2023-10-13T01:01:17;22.30;65.30
11426;DHT22;5769;47.998;7.788;2023-10-13T01:03:45;22.30;65.20
11426;DHT22;5769;47.998;7.788;2023-10-13T01:06:14;22.30;65.20
11426;DHT22;5769;47.998;7.788;2023-10-13T01:08:42;22.30;65.20
11426;DHT22;5769;47.998;7.788;2023-10-13T01:11:09;22.30;65.30
11426;DHT22;5769;47.998;7.788;2023-10-13T01:13:36;22.30;65.20
11426;DHT22;5769;47.998;7.788;2023-10-13T01:16:03;22.30;65.20
11426;DHT22;5769;47.998;7.788;2023-10-13T01:18:29;22.30;65.30
11426;DHT22;5769;47.998;7.788;2023-10-13T01:20:57;22.30;65.20
11426;DHT22;5769;47.998;7.788;2023-10-13T01:23:27;22.30;65.20
11426;DHT22;5769;47.998;7.788;2023-10-13T01:26:03;22.30;65.20
11426;DHT22;5769;47.998;7.788;2023-10-13T01:28:31;22.30;65.20
11426;DHT22;5769;47.998;7.788;2023-10-13T01:31:10;22.30;65.20
11426;DHT22;5769;47.998;7.788;2023-10-13T01:33:36;22.30;65.20
11426;DHT22;5769;47.998;7.788;2023-10-13T01:36:03;22.30;65.20
11426;DHT22;5769;47.998;7.788;2023-10-13T01:38:34;22.30;65.20
11426;DHT22;5769;47.998;7.788;2023-10-13T01:41:05;22.30;65.20
11426;DHT22;5769;47.998;7.788;2023-10-13T01:43:30;22.30;65.20
11426;DHT22;5769;47.998;7.788;2023-10-13T01:45:57;22.30;65.20
11426;DHT22;5769;47.998;7.788;2023-10-13T01:48:23;22.30;65.20
11426;DHT22;5769;47.998;7.788;2023-10-13T01:50:49;22.30;65.20
11426;DHT22;5769;47.998;7.788;2023-10-13T01:53:21;22.30;65.20
11426;DHT22;5769;47.998;7.788;2023-10-13T01:55:49;22.20;65.10
11426;DHT22;5769;47.998;7.788;2023-10-13T01:58:16;22.30;65.20
11426;DHT22;5769;47.998;7.788;2023-10-13T02:00:44;22.30;65.20
11426;DHT22;5769;47.998;7.788;2023-10-13T02:03:12;22.30;65.10
11426;DHT22;5769;47.998;7.788;2023-10-13T02:05:41;22.30;65.10
11426;DHT22;5769;47.998;7.788;2023-10-13T02:08:12;22.30;65.20
11426;DHT22;5769;47.998;7.788;2023-10-13T02:10:44;22.30;65.20
11426;DHT22;5769;47.998;7.788;2023-10-13T02:13:13;22.30;65.20
11426;DHT22;5769;47.998;7.788;2023-10-13T02:15:43;22.30;65.20
11426;DHT22;5769;47.998;7.788;2023-10-13T02:18:11;22.20;65.10
11426;DHT22;5769;47.998;7.788;2023-10-13T02:20:38;22.30;65.20
11426;DHT22;5769;47.998;7.788;2023-10-13T02:23:09;22.30;65.20
11426;DHT22;5769;47.998;7.788;2023-10-13T02:25:37;22.20;65.10
11426;DHT22;5769;47.998;7.788;2023-10-13T02:28:08;22.30;65.10
11426;DHT22;5769;47.998;7.788;2023-10-13T02:30:40;22.30;65.10
11426;DHT22;5769;47.998;7.788;2023-10-13T02:33:11;22.20;65.10
11426;DHT22;5769;47.998;7.788;2023-10-13T02:35:38;22.20;65.10
11426;DHT22;5769;47.998;7.788;2023-10-13T02:38:09;22.30;65.10
11426;DHT22;5769;47.998;7.788;2023-10-13T02:40:38;22.20;65.10
11426;DHT22;5769;47.998;7.788;2023-10-13T02:43:04;22.30;65.10
11426;DHT22;5769;47.998;7.788;2023-10-13T02:45:32;22.30;65.10
11426;DHT22;5769;47.998;7.788;2023-10-13T02:47:59;22.30;65.10
11426;DHT22;5769;47.998;7.788;2023-10-13T02:50:40;22.20;65.10
11426;DHT22;5769;47.998;7.788;2023-10-13T02:53:08;22.20;65.10
11426;DHT22;5769;47.998;7.788;2023-10-13T02:55:38;22.20;65.10
11426;DHT22;5769;47.998;7.788;2023-10-13T02:58:05;22.20;65.00
11426;DHT22;5769;47.998;7.788;2023-10-13T03:00:34;22.20;65.10
11426;DHT22;5769;47.998;7.788;2023-10-13T03:03:01;22.20;65.00
11426;DHT22;5769;47.998;7.788;2023-10-13T03:05:27;22.20;65.10
11426;DHT22;5769;47.998;7.788;2023-10-13T03:07:56;22.20;65.10
11426;DHT22;5769;47.998;7.788;2023-10-13T03:10:24;22.20;65.00
11426;DHT22;5769;47.998;7.788;2023-10-13T03:12:54;22.20;65.00
11426;DHT22;5769;47.998;7.788;2023-10-13T03:15:21;22.20;65.00
11426;DHT22;5769;47.998;7.788;2023-10-13T03:17:56;22.20;65.00
11426;DHT22;5769;47.998;7.788;2023-10-13T03:20:25;22.20;65.00
11426;DHT22;5769;47.998;7.788;2023-10-13T03:22:57;22.20;65.00
11426;DHT22;5769;47.998;7.788;2023-10-13T03:25:23;22.20;64.90
11426;DHT22;5769;47.998;7.788;2023-10-13T03:27:55;22.20;64.90
11426;DHT22;5769;47.998;7.788;2023-10-13T03:30:30;22.20;64.90
11426;DHT22;5769;47.998;7.788;2023-10-13T03:33:00;22.20;64.90
11426;DHT22;5769;47.998;7.788;2023-10-13T03:35:33;22.20;64.90
11426;DHT22;5769;47.998;7.788;2023-10-13T03:38:04;22.20;64.90
11426;DHT22;5769;47.998;7.788;2023-10-13T03:40:37;22.20;65.70
11426;DHT22;5769;47.998;7.788;2023-10-13T03:43:05;22.20;64.90
11426;DHT22;5769;47.998;7.788;2023-10-13T03:45:36;22.20;64.90
11426;DHT22;5769;47.998;7.788;2023-10-13T03:48:05;22.20;64.90
11426;DHT22;5769;47.998;7.788;2023-10-13T03:50:37;22.20;64.90
11426;DHT22;5769;47.998;7.788;2023-10-13T03:53:11;22.20;64.90
11426;DHT22;5769;47.998;7.788;2023-10-13T03:55:38;22.20;64.90
11426;DHT22;5769;47.998;7.788;2023-10-13T03:58:05;22.20;64.90
11426;DHT22;5769;47.998;7.788;2023-10-13T04:00:32;22.20;64.90
11426;DHT22;5769;47.998;7.788;2023-10-13T04:03:03;22.20;64.90
11426;DHT22;5769;47.998;7.788;2023-10-13T04:05:36;22.20;64.90
11426;DHT22;5769;47.998;7.788;2023-10-13T04:08:06;22.20;64.90
11426;DHT22;5769;47.998;7.788;2023-10-13T04:10:52;22.20;64.90
11426;DHT22;5769;47.998;7.788;2023-10-13T04:13:36;22.20;64.80
11426;DHT22;5769;47.998;7.788;2023-10-13T04:16:20;22.20;64.90
11426;DHT22;5769;47.998;7.788;2023-10-13T04:19:01;22.20;64.90
11426;DHT22;5769;47.998;7.788;2023-10-13T04:21:36;22.20;64.80
11426;DHT22;5769;47.998;7.788;2023-10-13T04:24:06;22.20;64.80
11426;DHT22;5769;47.998;7.788;2023-10-13T04:26:49;22.20;64.80
11426;DHT22;5769;47.998;7.788;2023-10-13T04:29:43;22.20;64.90
11426;DHT22;5769;47.998;7.788;2023-10-13T04:32:17;22.20;64.80
11426;DHT22;5769;47.998;7.788;2023-10-13T04:34:54;22.20;64.80
11426;DHT22;5769;47.998;7.788;2023-10-13T04:37:25;22.20;64.80
11426;DHT22;5769;47.998;7.788;2023-10-13T04:39:55;22.20;64.80
11426;DHT22;5769;47.998;7.788;2023-10-13T04:42:25;22.20;64.80
11426;DHT22;5769;47.998;7.788;2023-10-13T04:45:06;22.20;64.80
11426;DHT22;5769;47.998;7.788;2023-10-13T04:47:55;22.20;64.80
11426;DHT22;5769;47.998;7.788;2023-10-13T04:50:23;22.20;64.80
11426;DHT22;5769;47.998;7.788;2023-10-13T04:53:01;22.20;64.80
11426;DHT22;5769;47.998;7.788;2023-10-13T04:55:27;22.20;64.70
11426;DHT22;5769;47.998;7.788;2023-10-13T04:58:13;22.20;64.70
11426;DHT22;5769;47.998;7.788;2023-10-13T05:01:07;22.20;64.70
11426;DHT22;5769;47.998;7.788;2023-10-13T05:04:25;22.20;64.70
11426;DHT22;5769;47.998;7.788;2023-10-13T05:07:04;22.20;64.70
11426;DHT22;5769;47.998;7.788;2023-10-13T05:09:50;22.20;64.70
11426;DHT22;5769;47.998;7.788;2023-10-13T05:12:34;22.20;64.70
11426;DHT22;5769;47.998;7.788;2023-10-13T05:15:18;22.20;64.60
11426;DHT22;5769;47.998;7.788;2023-10-13T05:18:03;22.20;64.60
11426;DHT22;5769;47.998;7.788;2023-10-13T05:20:47;22.20;64.60
11426;DHT22;5769;47.998;7.788;2023-10-13T05:23:31;22.20;64.60
11426;DHT22;5769;47.998;7.788;2023-10-13T05:26:17;22.20;64.60
11426;DHT22;5769;47.998;7.788;2023-10-13T05:29:01;22.20;64.60
11426;DHT22;5769;47.998;7.788;2023-10-13T05:31:45;22.20;64.60
11426;DHT22;5769;47.998;7.788;2023-10-13T05:34:29;22.20;64.60
11426;DHT22;5769;47.998;7.788;2023-10-13T05:37:13;22.20;64.50
11426;DHT22;5769;47.998;7.788;2023-10-13T05:39:57;22.20;64.60
11426;DHT22;5769;47.998;7.788;2023-10-13T05:42:43;22.20;64.50
11426;DHT22;5769;47.998;7.788;2023-10-13T05:45:27;22.20;64.50
11426;DHT22;5769;47.998;7.788;2023-10-13T05:48:23;22.20;64.50
11426;DHT22;5769;47.998;7.788;2023-10-13T05:51:07;22.10;64.50
11426;DHT22;5769;47.998;7.788;2023-10-13T05:53:51;22.20;64.50
11426;DHT22;5769;47.998;7.788;2023-10-13T05:56:35;22.20;64.50
11426;DHT22;5769;47.998;7.788;2023-10-13T05:59:20;22.10;64.40
11426;DHT22;5769;47.998;7.788;2023-10-13T06:02:18;22.20;64.50
11426;DHT22;5769;47.998;7.788;2023-10-13T06:05:03;22.20;64.50
11426;DHT22;5769;47.998;7.788;2023-10-13T06:07:47;22.20;64.50
11426;DHT22;5769;47.998;7.788;2023-10-13T06:10:32;22.20;64.50
11426;DHT22;5769;47.998;7.788;2023-10-13T06:13:16;22.10;65.10
11426;DHT22;5769;47.998;7.788;2023-10-13T06:16:04;22.20;64.50
11426;DHT22;5769;47.998;7.788;2023-10-13T06:18:49;22.10;64.40
11426;DHT22;5769;47.998;7.788;2023-10-13T06:21:33;22.20;64.50
11426;DHT22;5769;47.998;7.788;2023-10-13T06:24:17;22.10;64.30
11426;DHT22;5769;47.998;7.788;2023-10-13T06:27:01;22.10;64.40
11426;DHT22;5769;47.998;7.788;2023-10-13T06:29:51;22.10;64.40
11426;DHT22;5769;47.998;7.788;2023-10-13T06:32:20;22.20;64.50
11426;DHT22;5769;47.998;7.788;2023-10-13T06:34:51;22.10;64.30
11426;DHT22;5769;47.998;7.788;2023-10-13T06:37:23;22.20;64.50
11426;DHT22;5769;47.998;7.788;2023-10-13T06:39:51;22.10;64.30
11426;DHT22;5769;47.998;7.788;2023-10-13T06:42:21;22.10;64.30
11426;DHT22;5769;47.998;7.788;2023-10-13T06:44:52;22.10;64.30
11426;DHT22;5769;47.998;7.788;2023-10-13T06:47:21;22.10;64.30
11426;DHT22;5769;47.998;7.788;2023-10-13T06:49:48;22.10;64.30
11426;DHT22;5769;47.998;7.788;2023-10-13T06:52:16;22.10;64.30
11426;DHT22;5769;47.998;7.788;2023-10-13T06:54:43;22.10;64.30
11426;DHT22;5769;47.998;7.788;2023-10-13T06:57:10;22.10;64.30
11426;DHT22;5769;47.998;7.788;2023-10-13T06:59:39;22.20;64.40
11426;DHT22;5769;47.998;7.788;2023-10-13T07:02:06;22.20;64.30
11426;DHT22;5769;47.998;7.788;2023-10-13T07:04:36;22.10;64.30
11426;DHT22;5769;47.998;7.788;2023-10-13T07:07:04;22.20;64.30
11426;DHT22;5769;47.998;7.788;2023-10-13T07:09:31;22.10;64.30
11426;DHT22;5769;47.998;7.788;2023-10-13T07:12:07;22.10;64.20
11426;DHT22;5769;47.998;7.788;2023-10-13T07:14:45;22.10;64.30
11426;DHT22;5769;47.998;7.788;2023-10-13T07:17:17;22.10;64.20
11426;DHT22;5769;47.998;7.788;2023-10-13T07:19:50;22.10;64.20
11426;DHT22;5769;47.998;7.788;2023-10-13T07:22:20;22.10;64.20
11426;DHT22;5769;47.998;7.788;2023-10-13T07:24:48;22.10;64.20
11426;DHT22;5769;47.998;7.788;2023-10-13T07:27:15;22.10;64.20
11426;DHT22;5769;47.998;7.788;2023-10-13T07:29:48;22.10;64.20
11426;DHT22;5769;47.998;7.788;2023-10-13T07:32:21;22.10;64.20
11426;DHT22;5769;47.998;7.788;2023-10-13T07:34:53;22.10;64.20
11426;DHT22;5769;47.998;7.788;2023-10-13T07:37:22;22.10;64.10
11426;DHT22;5769;47.998;7.788;2023-10-13T07:39:53;22.10;64.10
11426;DHT22;5769;47.998;7.788;2023-10-13T07:42:23;22.10;64.10
11426;DHT22;5769;47.998;7.788;2023-10-13T07:44:52;22.10;64.10
11426;DHT22;5769;47.998;7.788;2023-10-13T07:47:21;22.20;64.10
11426;DHT22;5769;47.998;7.788;2023-10-13T07:49:50;22.10;64.20
11426;DHT22;5769;47.998;7.788;2023-10-13T07:52:18;22.20;64.30
11426;DHT22;5769;47.998;7.788;2023-10-13T07:54:51;22.20;64.30
11426;DHT22;5769;47.998;7.788;2023-10-13T07:57:25;22.20;64.30
11426;DHT22;5769;47.998;7.788;2023-10-13T07:59:55;22.20;64.30
11426;DHT22;5769;47.998;7.788;2023-10-13T08:02:33;22.20;64.30
11426;DHT22;5769;47.998;7.788;2023-10-13T08:05:14;22.20;64.30
11426;DHT22;5769;47.998;7.788;2023-10-13T08:07:51;22.30;64.30
11426;DHT22;5769;47.998;7.788;2023-10-13T08:10:18;22.30;64.30
11426;DHT22;5769;47.998;7.788;2023-10-13T08:12:50;22.30;64.40
11426;DHT22;5769;47.998;7.788;2023-10-13T08:15:17;22.30;64.40
11426;DHT22;5769;47.998;7.788;2023-10-13T08:17:57;22.30;64.40
11426;DHT22;5769;47.998;7.788;2023-10-13T08:20:29;22.30;64.40
11426;DHT22;5769;47.998;7.788;2023-10-13T08:23:05;22.30;64.40
11426;DHT22;5769;47.998;7.788;2023-10-13T08:25:39;22.30;64.50
11426;DHT22;5769;47.998;7.788;2023-10-13T08:28:20;22.30;64.50
11426;DHT22;5769;47.998;7.788;2023-10-13T08:31:05;22.30;64.50
11426;DHT22;5769;47.998;7.788;2023-10-13T08:33:40;22.30;64.50
11426;DHT22;5769;47.998;7.788;2023-10-13T08:36:12;22.30;64.50
11426;DHT22;5769;47.998;7.788;2023-10-13T08:38:55;22.30;64.60
11426;DHT22;5769;47.998;7.788;2023-10-13T08:41:21;22.30;64.50
11426;DHT22;5769;47.998;7.788;2023-10-13T08:44:05;22.30;64.60
11426;DHT22;5769;47.998;7.788;2023-10-13T08:46:34;22.30;64.60
11426;DHT22;5769;47.998;7.788;2023-10-13T08:49:27;22.40;64.60
11426;DHT22;5769;47.998;7.788;2023-10-13T08:51:55;22.40;64.60
11426;DHT22;5769;47.998;7.788;2023-10-13T08:54:35;22.40;64.60
11426;DHT22;5769;47.998;7.788;2023-10-13T08:57:11;22.40;64.60
11426;DHT22;5769;47.998;7.788;2023-10-13T08:59:58;22.30;64.60
11426;DHT22;5769;47.998;7.788;2023-10-13T09:02:44;22.40;64.60
11426;DHT22;5769;47.998;7.788;2023-10-13T09:05:25;22.40;64.60
11426;DHT22;5769;47.998;7.788;2023-10-13T09:08:08;22.40;64.60
11426;DHT22;5769;47.998;7.788;2023-10-13T09:10:36;22.40;64.60
11426;DHT22;5769;47.998;7.788;2023-10-13T09:13:34;22.40;64.60
11426;DHT22;5769;47.998;7.788;2023-10-13T09:16:10;22.40;64.60
11426;DHT22;5769;47.998;7.788;2023-10-13T09:18:42;22.40;64.50
11426;DHT22;5769;47.998;7.788;2023-10-13T09:21:11;22.40;64.50
11426;DHT22;5769;47.998;7.788;2023-10-13T09:23:58;22.40;64.50
11426;DHT22;5769;47.998;7.788;2023-10-13T09:26:40;22.40;64.50
11426;DHT22;5769;47.998;7.788;2023-10-13T09:29:14;22.40;64.50
11426;DHT22;5769;47.998;7.788;2023-10-13T09:31:40;22.40;64.50
11426;DHT22;5769;47.998;7.788;2023-10-13T09:34:10;22.40;64.50
11426;DHT22;5769;47.998;7.788;2023-10-13T09:36:36;22.40;64.30
11426;DHT22;5769;47.998;7.788;2023-10-13T09:39:03;22.40;64.50
11426;DHT22;5769;47.998;7.788;2023-10-13T09:41:37;22.40;64.50
11426;DHT22;5769;47.998;7.788;2023-10-13T09:44:07;22.40;64.50
11426;DHT22;5769;47.998;7.788;2023-10-13T09:46:37;22.40;64.50
11426;DHT22;5769;47.998;7.788;2023-10-13T09:49:12;22.40;64.40
11426;DHT22;5769;47.998;7.788;2023-10-13T09:51:41;22.40;65.10
11426;DHT22;5769;47.998;7.788;2023-10-13T09:54:17;22.40;64.40
11426;DHT22;5769;47.998;7.788;2023-10-13T09:56:48;22.40;64.20
11426;DHT22;5769;47.998;7.788;2023-10-13T09:59:21;22.40;64.20
11426;DHT22;5769;47.998;7.788;2023-10-13T10:01:48;22.40;64.10
11426;DHT22;5769;47.998;7.788;2023-10-13T10:04:18;22.40;64.10
11426;DHT22;5769;47.998;7.788;2023-10-13T10:06:52;22.30;64.00
11426;DHT22;5769;47.998;7.788;2023-10-13T10:09:19;22.40;64.10
11426;DHT22;5769;47.998;7.788;2023-10-13T10:12:03;22.40;64.10
11426;DHT22;5769;47.998;7.788;2023-10-13T10:14:59;22.40;64.10
11426;DHT22;5769;47.998;7.788;2023-10-13T10:17:38;22.40;64.10
11426;DHT22;5769;47.998;7.788;2023-10-13T10:20:06;22.40;64.10
11426;DHT22;5769;47.998;7.788;2023-10-13T10:22:41;22.30;64.00
11426;DHT22;5769;47.998;7.788;2023-10-13T10:25:14;22.30;64.00
11426;DHT22;5769;47.998;7.788;2023-10-13T10:27:55;22.40;64.00
11426;DHT22;5769;47.998;7.788;2023-10-13T10:30:26;22.30;63.90
11426;DHT22;5769;47.998;7.788;2023-10-13T10:32:54;22.40;63.90
11426;DHT22;5769;47.998;7.788;2023-10-13T10:35:24;22.40;64.10
11426;DHT22;5769;47.998;7.788;2023-10-13T10:37:56;22.40;64.20
11426;DHT22;5769;47.998;7.788;2023-10-13T10:40:29;22.40;64.20
11426;DHT22;5769;47.998;7.788;2023-10-13T10:43:12;22.40;64.30
11426;DHT22;5769;47.998;7.788;2023-10-13T10:45:47;22.40;64.30
11426;DHT22;5769;47.998;7.788;2023-10-13T10:48:16;22.40;64.40
11426;DHT22;5769;47.998;7.788;2023-10-13T10:50:51;22.40;64.40
11426;DHT22;5769;47.998;7.788;2023-10-13T10:53:20;22.40;64.40
11426;DHT22;5769;47.998;7.788;2023-10-13T10:55:47;22.40;64.50
11426;DHT22;5769;47.998;7.788;2023-10-13T10:58:14;22.40;64.50
11426;DHT22;5769;47.998;7.788;2023-10-13T11:01:05;22.40;64.50
11426;DHT22;5769;47.998;7.788;2023-10-13T11:03:37;22.40;64.50
11426;DHT22;5769;47.998;7.788;2023-10-13T11:06:11;22.40;64.50
11426;DHT22;5769;47.998;7.788;2023-10-13T11:08:42;22.40;64.50
11426;DHT22;5769;47.998;7.788;2023-10-13T11:11:27;22.50;64.60
11426;DHT22;5769;47.998;7.788;2023-10-13T11:13:56;22.50;64.60
11426;DHT22;5769;47.998;7.788;2023-10-13T11:16:46;22.40;64.50
11426;DHT22;5769;47.998;7.788;2023-10-13T11:19:17;22.50;64.50
11426;DHT22;5769;47.998;7.788;2023-10-13T11:21:46;22.50;64.50
11426;DHT22;5769;47.998;7.788;2023-10-13T11:24:13;22.50;64.50
11426;DHT22;5769;47.998;7.788;2023-10-13T11:26:43;22.40;64.50
11426;DHT22;5769;47.998;7.788;2023-10-13T11:29:15;22.50;64.50
11426;DHT22;5769;47.998;7.788;2023-10-13T11:31:46;22.50;64.50
11426;DHT22;5769;47.998;7.788;2023-10-13T11:34:19;22.50;64.50
11426;DHT22;5769;47.998;7.788;2023-10-13T11:36:45;22.50;64.50
11426;DHT22;5769;47.998;7.788;2023-10-13T11:39:12;22.50;64.50
11426;DHT22;5769;47.998;7.788;2023-10-13T11:41:44;22.50;64.50
11426;DHT22;5769;47.998;7.788;2023-10-13T11:44:19;22.50;64.50
11426;DHT22;5769;47.998;7.788;2023-10-13T11:47:09;22.50;64.50
11426;DHT22;5769;47.998;7.788;2023-10-13T11:49:58;22.50;64.50
11426;DHT22;5769;47.998;7.788;2023-10-13T11:52:25;22.50;64.50
11426;DHT22;5769;47.998;7.788;2023-10-13T11:54:54;22.50;64.50
11426;DHT22;5769;47.998;7.788;2023-10-13T11:57:21;22.50;64.50
11426;DHT22;5769;47.998;7.788;2023-10-13T11:59:48;22.50;64.50
11426;DHT22;5769;47.998;7.788;2023-10-13T12:02:42;22.60;64.50
11426;DHT22;5769;47.998;7.788;2023-10-13T12:05:23;22.60;64.50
11426;DHT22;5769;47.998;7.788;2023-10-13T12:08:04;22.60;64.50
11426;DHT22;5769;47.998;7.788;2023-10-13T12:10:33;22.60;64.50
11426;DHT22;5769;47.998;7.788;2023-10-13T12:13:00;22.50;64.50
11426;DHT22;5769;47.998;7.788;2023-10-13T12:15:33;22.60;64.50
11426;DHT22;5769;47.998;7.788;2023-10-13T12:18:18;22.60;64.50
11426;DHT22;5769;47.998;7.788;2023-10-13T12:20:46;22.60;64.40
11426;DHT22;5769;47.998;7.788;2023-10-13T12:23:14;22.60;64.50
11426;DHT22;5769;47.998;7.788;2023-10-13T12:25:46;22.60;64.40
11426;DHT22;5769;47.998;7.788;2023-10-13T12:28:23;22.60;64.40
11426;DHT22;5769;47.998;7.788;2023-10-13T12:30:50;22.60;64.30
11426;DHT22;5769;47.998;7.788;2023-10-13T12:33:19;22.60;64.30
11426;DHT22;5769;47.998;7.788;2023-10-13T12:35:56;22.60;64.30
11426;DHT22;5769;47.998;7.788;2023-10-13T12:38:46;22.60;64.30
11426;DHT22;5769;47.998;7.788;2023-10-13T12:41:45;22.60;64.30
11426;DHT22;5769;47.998;7.788;2023-10-13T12:44:29;22.60;65.00
11426;DHT22;5769;47.998;7.788;2023-10-13T12:47:13;22.60;64.30
11426;DHT22;5769;47.998;7.788;2023-10-13T12:49:59;22.60;64.30
11426;DHT22;5769;47.998;7.788;2023-10-13T12:52:33;22.60;64.30
11426;DHT22;5769;47.998;7.788;2023-10-13T12:54:59;22.60;64.30
11426;DHT22;5769;47.998;7.788;2023-10-13T12:57:35;22.60;64.20
11426;DHT22;5769;47.998;7.788;2023-10-13T13:00:10;22.60;64.10
11426;DHT22;5769;47.998;7.788;2023-10-13T13:02:46;22.60;64.10
11426;DHT22;5769;47.998;7.788;2023-10-13T13:05:17;22.60;64.40
11426;DHT22;5769;47.998;7.788;2023-10-13T13:07:48;22.60;64.20
11426;DHT22;5769;47.998;7.788;2023-10-13T13:10:18;22.60;64.20
11426;DHT22;5769;47.998;7.788;2023-10-13T13:12:45;22.60;64.30
11426;DHT22;5769;47.998;7.788;2023-10-13T13:15:11;22.60;64.30
11426;DHT22;5769;47.998;7.788;2023-10-13T13:17:40;22.60;64.30
11426;DHT22;5769;47.998;7.788;2023-10-13T13:20:08;22.60;64.30
11426;DHT22;5769;47.998;7.788;2023-10-13T13:22:52;22.60;64.30
11426;DHT22;5769;47.998;7.788;2023-10-13T13:25:20;22.60;64.40
11426;DHT22;5769;47.998;7.788;2023-10-13T13:27:51;22.60;64.40
11426;DHT22;5769;47.998;7.788;2023-10-13T13:30:18;22.60;64.50
11426;DHT22;5769;47.998;7.788;2023-10-13T13:32:46;22.60;64.50
11426;DHT22;5769;47.998;7.788;2023-10-13T13:35:13;22.60;64.50
11426;DHT22;5769;47.998;7.788;2023-10-13T13:37:44;22.60;64.60
11426;DHT22;5769;47.998;7.788;2023-10-13T13:40:12;22.60;64.60
11426;DHT22;5769;47.998;7.788;2023-10-13T13:42:46;22.60;64.60
11426;DHT22;5769;47.998;7.788;2023-10-13T13:45:13;22.70;64.50
11426;DHT22;5769;47.998;7.788;2023-10-13T13:47:53;22.70;64.50
11426;DHT22;5769;47.998;7.788;2023-10-13T13:50:23;22.70;64.50
11426;DHT22;5769;47.998;7.788;2023-10-13T13:52:52;22.70;64.60
11426;DHT22;5769;47.998;7.788;2023-10-13T13:55:22;22.70;64.60
11426;DHT22;5769;47.998;7.788;2023-10-13T13:57:49;22.70;64.70
11426;DHT22;5769;47.998;7.788;2023-10-13T14:00:17;22.70;64.80
11426;DHT22;5769;47.998;7.788;2023-10-13T14:02:48;22.70;64.80
11426;DHT22;5769;47.998;7.788;2023-10-13T14:05:15;22.70;64.90
11426;DHT22;5769;47.998;7.788;2023-10-13T14:07:43;22.70;64.90
11426;DHT22;5769;47.998;7.788;2023-10-13T14:10:15;22.70;65.00
11426;DHT22;5769;47.998;7.788;2023-10-13T14:12:59;22.70;65.00
11426;DHT22;5769;47.998;7.788;2023-10-13T14:15:33;22.70;65.10
11426;DHT22;5769;47.998;7.788;2023-10-13T14:18:06;22.70;65.10
11426;DHT22;5769;47.998;7.788;2023-10-13T14:20:38;22.70;65.20
11426;DHT22;5769;47.998;7.788;2023-10-13T14:23:05;22.70;65.20
11426;DHT22;5769;47.998;7.788;2023-10-13T14:25:33;22.70;65.20
11426;DHT22;5769;47.998;7.788;2023-10-13T14:28:05;22.70;66.00
11426;DHT22;5769;47.998;7.788;2023-10-13T14:30:32;22.70;65.20
11426;DHT22;5769;47.998;7.788;2023-10-13T14:32:58;22.70;65.30
11426;DHT22;5769;47.998;7.788;2023-10-13T14:35:26;22.70;65.40
11426;DHT22;5769;47.998;7.788;2023-10-13T14:37:53;22.70;65.40
11426;DHT22;5769;47.998;7.788;2023-10-13T14:40:20;22.70;65.40
11426;DHT22;5769;47.998;7.788;2023-10-13T14:42:48;22.70;65.40
11426;DHT22;5769;47.998;7.788;2023-10-13T14:45:16;22.70;65.50
11426;DHT22;5769;47.998;7.788;2023-10-13T14:47:43;22.80;65.60
11426;DHT22;5769;47.998;7.788;2023-10-13T14:50:10;22.80;65.60
11426;DHT22;5769;47.998;7.788;2023-10-13T14:52:45;22.80;65.70
11426;DHT22;5769;47.998;7.788;2023-10-13T14:55:12;22.80;65.60
11426;DHT22;5769;47.998;7.788;2023-10-13T14:57:46;22.80;65.70
11426;DHT22;5769;47.998;7.788;2023-10-13T15:00:13;22.80;65.70
11426;DHT22;5769;47.998;7.788;2023-10-13T15:02:42;22.80;65.70
11426;DHT22;5769;47.998;7.788;2023-10-13T15:05:09;22.80;65.70
11426;DHT22;5769;47.998;7.788;2023-10-13T15:07:42;22.80;65.70
11426;DHT22;5769;47.998;7.788;2023-10-13T15:10:11;22.80;65.50
11426;DHT22;5769;47.998;7.788;2023-10-13T15:12:40;22.80;65.40
11426;DHT22;5769;47.998;7.788;2023-10-13T15:15:08;22.70;65.10
11426;DHT22;5769;47.998;7.788;2023-10-13T15:17:39;22.70;65.40
11426;DHT22;5769;47.998;7.788;2023-10-13T15:20:08;22.70;64.90
11426;DHT22;5769;47.998;7.788;2023-10-13T15:22:36;22.70;64.70
11426;DHT22;5769;47.998;7.788;2023-10-13T15:25:05;22.70;64.70
11426;DHT22;5769;47.998;7.788;2023-10-13T15:27:43;22.70;64.60
11426;DHT22;5769;47.998;7.788;2023-10-13T15:30:16;22.70;64.60
11426;DHT22;5769;47.998;7.788;2023-10-13T15:32:49;22.70;64.50
11426;DHT22;5769;47.998;7.788;2023-10-13T15:35:18;22.70;64.50
11426;DHT22;5769;47.998;7.788;2023-10-13T15:37:44;22.60;64.30
11426;DHT22;5769;47.998;7.788;2023-10-13T15:40:13;22.60;64.30
11426;DHT22;5769;47.998;7.788;2023-10-13T15:42:42;22.60;64.20
11426;DHT22;5769;47.998;7.788;2023-10-13T15:45:10;22.60;64.30
11426;DHT22;5769;47.998;7.788;2023-10-13T15:47:43;22.60;64.30
11426;DHT22;5769;47.998;7.788;2023-10-13T15:50:12;22.60;64.40
11426;DHT22;5769;47.998;7.788;2023-10-13T15:52:42;22.60;64.40
11426;DHT22;5769;47.998;7.788;2023-10-13T15:55:12;22.60;64.40
11426;DHT22;5769;47.998;7.788;2023-10-13T15:57:39;22.60;64.50
11426;DHT22;5769;47.998;7.788;2023-10-13T16:00:08;22.60;64.40
11426;DHT22;5769;47.998;7.788;2023-10-13T16:02:49;22.60;64.40
11426;DHT22;5769;47.998;7.788;2023-10-13T16:05:17;22.50;64.40
11426;DHT22;5769;47.998;7.788;2023-10-13T16:07:45;22.60;64.40
11426;DHT22;5769;47.998;7.788;2023-10-13T16:10:11;22.60;64.40
11426;DHT22;5769;47.998;7.788;2023-10-13T16:12:38;22.60;64.40
11426;DHT22;5769;47.998;7.788;2023-10-13T16:15:05;22.60;64.40
11426;DHT22;5769;47.998;7.788;2023-10-13T16:17:33;22.60;64.40
11426;DHT22;5769;47.998;7.788;2023-10-13T16:20:05;22.60;64.40
11426;DHT22;5769;47.998;7.788;2023-10-13T16:22:41;22.60;64.40